sensor_id;sensor_type;location;lat;lon;timestamp;temperature;humidity
17687;DHT22;8962;52.538;13.266;2022-12-18T00:01:21;-4.40;99.90
17687;DHT22;8962;52.538;13.266;2022-12-18T00:03:50;-4.40;99.90
17687;DHT22;8962;52.538;13.266;2022-12-18T00:06:18;-4.50;99.90
17687;DHT22;8962;52.538;13.266;2022-12-18T00:08:46;-4.60;99.90
17687;DHT22;8962;52.538;13.266;2022-12-18T00:11:16;-4.70;99.90
17687;DHT22;8962;52.538;13.266;2022-12-18T00:13:44;-4.70;99.90
17687;DHT22;8962;52.538;13.266;2022-12-18T00:16:14;-4.70;99.90
17687;DHT22;8962;52.538;13.266;2022-12-18T00:18:42;-4.70;99.90
17687;DHT22;8962;52.538;13.266;2022-12-18T00:21:11;-4.70;99.90
17687;DHT22;8962;52.538;13.266;2022-12-18T00:23:41;-4.80;99.90
17687;DHT22;8962;52.538;13.266;2022-12-18T00:26:12;-4.80;99.90
17687;DHT22;8962;52.538;13.266;2022-12-18T00:28:44;-4.80;99.90
17687;DHT22;8962;52.538;13.266;2022-12-18T00:31:13;-4.80;99.90
17687;DHT22;8962;52.538;13.266;2022-12-18T00:33:40;-4.80;99.90
17687;DHT22;8962;52.538;13.266;2022-12-18T00:36:11;-4.80;99.90
17687;DHT22;8962;52.538;13.266;2022-12-18T00:38:41;-4.80;99.90
17687;DHT22;8962;52.538;13.266;2022-12-18T00:41:10;-4.80;99.90
17687;DHT22;8962;52.538;13.266;2022-12-18T00:43:38;-4.70;99.90
17687;DHT22;8962;52.538;13.266;2022-12-18T00:46:07;-4.60;99.90
17687;DHT22;8962;52.538;13.266;2022-12-18T00:48:35;-4.60;99.90
17687;DHT22;8962;52.538;13.266;2022-12-18T00:51:02;-4.50;99.90
17687;DHT22;8962;52.538;13.266;2022-12-18T00:53:30;-4.60;99.90
17687;DHT22;8962;52.538;13.266;2022-12-18T00:55:58;-4.60;99.90
17687;DHT22;8962;52.538;13.266;2022-12-18T00:58:25;-4.60;99.90
17687;DHT22;8962;52.538;13.266;2022-12-18T01:00:53;-4.70;99.90
17687;DHT22;8962;52.538;13.266;2022-12-18T01:03:21;-4.80;99.90
17687;DHT22;8962;52.538;13.266;2022-12-18T01:05:49;-4.80;99.90
17687;DHT22;8962;52.538;13.266;2022-12-18T01:08:18;-4.70;99.90
17687;DHT22;8962;52.538;13.266;2022-12-18T01:10:45;-4.70;99.90
17687;DHT22;8962;52.538;13.266;2022-12-18T01:13:13;-4.80;99.90
17687;DHT22;8962;52.538;13.266;2022-12-18T01:15:47;-4.80;99.90
17687;DHT22;8962;52.538;13.266;2022-12-18T01:18:14;-4.80;99.90
17687;DHT22;8962;52.538;13.266;2022-12-18T01:20:44;-4.80;99.90
17687;DHT22;8962;52.538;13.266;2022-12-18T01:23:11;-4.90;99.90
17687;DHT22;8962;52.538;13.266;2022-12-18T01:25:38;-4.80;99.90
17687;DHT22;8962;52.538;13.266;2022-12-18T01:28:12;-4.80;99.90
17687;DHT22;8962;52.538;13.266;2022-12-18T01:30:40;-4.80;99.90
17687;DHT22;8962;52.538;13.266;2022-12-18T01:33:10;-4.70;99.90
17687;DHT22;8962;52.538;13.266;2022-12-18T01:35:42;-4.70;99.90
17687;DHT22;8962;52.538;13.266;2022-12-18T01:38:09;-4.70;99.90
17687;DHT22;8962;52.538;13.266;2022-12-18T01:40:37;-4.60;99.90
17687;DHT22;8962;52.538;13.266;2022-12-18T01:43:08;-4.60;99.90
17687;DHT22;8962;52.538;13.266;2022-12-18T01:45:36;-4.60;99.90
17687;DHT22;8962;52.538;13.266;2022-12-18T01:48:08;-4.60;99.90
17687;DHT22;8962;52.538;13.266;2022-12-18T01:50:38;-4.60;99.90
17687;DHT22;8962;52.538;13.266;2022-12-18T01:53:11;-4.70;99.90
17687;DHT22;8962;52.538;13.266;2022-12-18T01:55:43;-4.70;99.90
17687;DHT22;8962;52.538;13.266;2022-12-18T01:58:12;-4.60;99.90
17687;DHT22;8962;52.538;13.266;2022-12-18T02:00:39;-4.60;99.90
17687;DHT22;8962;52.538;13.266;2022-12-18T02:03:07;-4.60;99.90
17687;DHT22;8962;52.538;13.266;2022-12-18T02:05:44;-4.60;99.90
17687;DHT22;8962;52.538;13.266;2022-12-18T02:08:21;-4.60;99.90
17687;DHT22;8962;52.538;13.266;2022-12-18T02:10:58;-4.70;99.90
17687;DHT22;8962;52.538;13.266;2022-12-18T02:13:36;-4.80;99.90
17687;DHT22;8962;52.538;13.266;2022-12-18T02:16:09;-4.70;99.90
17687;DHT22;8962;52.538;13.266;2022-12-18T02:18:43;-4.70;99.90
17687;DHT22;8962;52.538;13.266;2022-12-18T02:21:22;-4.80;99.90
17687;DHT22;8962;52.538;13.266;2022-12-18T02:23:59;-4.90;99.90
17687;DHT22;8962;52.538;13.266;2022-12-18T02:26:36;-4.90;99.90
17687;DHT22;8962;52.538;13.266;2022-12-18T02:29:09;-5.00;99.90
17687;DHT22;8962;52.538;13.266;2022-12-18T02:31:42;-5.10;99.90
17687;DHT22;8962;52.538;13.266;2022-12-18T02:34:13;-5.10;99.90
17687;DHT22;8962;52.538;13.266;2022-12-18T02:36:43;-5.20;99.90
17687;DHT22;8962;52.538;13.266;2022-12-18T02:39:12;-5.20;99.90
17687;DHT22;8962;52.538;13.266;2022-12-18T02:41:52;-5.10;99.90
17687;DHT22;8962;52.538;13.266;2022-12-18T02:44:21;-5.10;99.90
17687;DHT22;8962;52.538;13.266;2022-12-18T02:46:51;-5.10;99.90
17687;DHT22;8962;52.538;13.266;2022-12-18T02:49:31;-5.00;99.90
17687;DHT22;8962;52.538;13.266;2022-12-18T02:52:10;-5.00;99.90
17687;DHT22;8962;52.538;13.266;2022-12-18T02:54:57;-5.10;99.90
17687;DHT22;8962;52.538;13.266;2022-12-18T02:57:35;-5.10;99.90
17687;DHT22;8962;52.538;13.266;2022-12-18T03:00:07;-5.20;99.90
17687;DHT22;8962;52.538;13.266;2022-12-18T03:02:40;-5.20;99.90
17687;DHT22;8962;52.538;13.266;2022-12-18T03:05:13;-5.20;99.90
17687;DHT22;8962;52.538;13.266;2022-12-18T03:07:47;-5.20;99.90
17687;DHT22;8962;52.538;13.266;2022-12-18T03:10:21;-5.20;99.90
17687;DHT22;8962;52.538;13.266;2022-12-18T03:12:56;-5.10;99.90
17687;DHT22;8962;52.538;13.266;2022-12-18T03:15:30;-5.10;99.90
17687;DHT22;8962;52.538;13.266;2022-12-18T03:18:10;-5.10;99.90
17687;DHT22;8962;52.538;13.266;2022-12-18T03:20:39;-5.00;99.90
17687;DHT22;8962;52.538;13.266;2022-12-18T03:23:12;-5.10;99.90
17687;DHT22;8962;52.538;13.266;2022-12-18T03:25:47;-5.10;99.90
17687;DHT22;8962;52.538;13.266;2022-12-18T03:28:21;-5.00;99.90
17687;DHT22;8962;52.538;13.266;2022-12-18T03:30:59;-5.00;99.90
17687;DHT22;8962;52.538;13.266;2022-12-18T03:33:34;-4.90;99.90
17687;DHT22;8962;52.538;13.266;2022-12-18T03:36:04;-4.90;99.90
17687;DHT22;8962;52.538;13.266;2022-12-18T03:38:34;-4.90;99.90
17687;DHT22;8962;52.538;13.266;2022-12-18T03:41:07;-4.90;99.90
17687;DHT22;8962;52.538;13.266;2022-12-18T03:44:03;-5.00;99.90
17687;DHT22;8962;52.538;13.266;2022-12-18T03:46:43;-5.00;99.90
17687;DHT22;8962;52.538;13.266;2022-12-18T03:49:21;-5.10;99.90
17687;DHT22;8962;52.538;13.266;2022-12-18T03:51:59;-5.20;99.90
17687;DHT22;8962;52.538;13.266;2022-12-18T03:54:33;-5.30;99.90
17687;DHT22;8962;52.538;13.266;2022-12-18T03:57:13;-5.30;99.90
17687;DHT22;8962;52.538;13.266;2022-12-18T03:59:46;-5.20;99.90
17687;DHT22;8962;52.538;13.266;2022-12-18T04:02:17;-5.10;99.90
17687;DHT22;8962;52.538;13.266;2022-12-18T04:04:47;-5.10;99.90
17687;DHT22;8962;52.538;13.266;2022-12-18T04:07:19;-5.10;99.90
17687;DHT22;8962;52.538;13.266;2022-12-18T04:09:48;-5.10;99.90
17687;DHT22;8962;52.538;13.266;2022-12-18T04:12:18;-5.10;99.90
17687;DHT22;8962;52.538;13.266;2022-12-18T04:14:48;-5.10;99.90
17687;DHT22;8962;52.538;13.266;2022-12-18T04:17:16;-5.10;99.90
17687;DHT22;8962;52.538;13.266;2022-12-18T04:19:44;-5.20;99.90
17687;DHT22;8962;52.538;13.266;2022-12-18T04:22:11;-5.30;99.90
17687;DHT22;8962;52.538;13.266;2022-12-18T04:24:45;-5.30;99.90
17687;DHT22;8962;52.538;13.266;2022-12-18T04:27:20;-5.30;99.90
17687;DHT22;8962;52.538;13.266;2022-12-18T04:29:51;-5.40;99.90
17687;DHT22;8962;52.538;13.266;2022-12-18T04:32:23;-5.40;99.90
17687;DHT22;8962;52.538;13.266;2022-12-18T04:34:51;-5.40;99.90
17687;DHT22;8962;52.538;13.266;2022-12-18T04:37:18;-5.30;99.90
17687;DHT22;8962;52.538;13.266;2022-12-18T04:39:48;-5.20;99.90
17687;DHT22;8962;52.538;13.266;2022-12-18T04:42:23;-5.30;99.90
17687;DHT22;8962;52.538;13.266;2022-12-18T04:44:51;-5.20;99.90
17687;DHT22;8962;52.538;13.266;2022-12-18T04:47:19;-5.10;99.90
17687;DHT22;8962;52.538;13.266;2022-12-18T04:49:46;-5.10;99.90
17687;DHT22;8962;52.538;13.266;2022-12-18T04:52:13;-5.10;99.90
17687;DHT22;8962;52.538;13.266;2022-12-18T04:54:40;-5.10;99.90
17687;DHT22;8962;52.538;13.266;2022-12-18T04:57:07;-5.10;99.90
17687;DHT22;8962;52.538;13.266;2022-12-18T04:59:35;-5.20;99.90
17687;DHT22;8962;52.538;13.266;2022-12-18T05:02:03;-5.20;99.90
17687;DHT22;8962;52.538;13.266;2022-12-18T05:04:30;-5.20;99.90
17687;DHT22;8962;52.538;13.266;2022-12-18T05:06:58;-5.20;99.90
17687;DHT22;8962;52.538;13.266;2022-12-18T05:09:27;-5.30;99.90
17687;DHT22;8962;52.538;13.266;2022-12-18T05:11:56;-5.30;99.90
17687;DHT22;8962;52.538;13.266;2022-12-18T05:14:24;-5.20;99.90
17687;DHT22;8962;52.538;13.266;2022-12-18T05:16:53;-5.20;99.90
17687;DHT22;8962;52.538;13.266;2022-12-18T05:19:23;-5.20;99.90
17687;DHT22;8962;52.538;13.266;2022-12-18T05:21:50;-5.10;99.90
17687;DHT22;8962;52.538;13.266;2022-12-18T05:24:18;-5.10;99.90
17687;DHT22;8962;52.538;13.266;2022-12-18T05:26:45;-5.10;99.90
17687;DHT22;8962;52.538;13.266;2022-12-18T05:29:12;-5.20;99.90
17687;DHT22;8962;52.538;13.266;2022-12-18T05:31:40;-5.30;99.90
17687;DHT22;8962;52.538;13.266;2022-12-18T05:34:08;-5.30;99.90
17687;DHT22;8962;52.538;13.266;2022-12-18T05:36:37;-5.30;99.90
17687;DHT22;8962;52.538;13.266;2022-12-18T05:39:06;-5.40;99.90
17687;DHT22;8962;52.538;13.266;2022-12-18T05:41:34;-5.50;99.90
17687;DHT22;8962;52.538;13.266;2022-12-18T05:44:01;-5.40;99.90
17687;DHT22;8962;52.538;13.266;2022-12-18T05:46:28;-5.40;99.90
17687;DHT22;8962;52.538;13.266;2022-12-18T05:48:59;-5.40;99.90
17687;DHT22;8962;52.538;13.266;2022-12-18T05:51:27;-5.30;99.90
17687;DHT22;8962;52.538;13.266;2022-12-18T05:53:58;-5.30;99.90
17687;DHT22;8962;52.538;13.266;2022-12-18T05:56:25;-5.30;99.90
17687;DHT22;8962;52.538;13.266;2022-12-18T05:58:53;-5.20;99.90
17687;DHT22;8962;52.538;13.266;2022-12-18T06:01:23;-5.30;99.90
17687;DHT22;8962;52.538;13.266;2022-12-18T06:03:56;-5.20;99.90
17687;DHT22;8962;52.538;13.266;2022-12-18T06:06:25;-5.20;99.90
17687;DHT22;8962;52.538;13.266;2022-12-18T06:08:54;-5.30;99.90
17687;DHT22;8962;52.538;13.266;2022-12-18T06:11:27;-5.20;99.90
17687;DHT22;8962;52.538;13.266;2022-12-18T06:13:56;-5.20;99.90
17687;DHT22;8962;52.538;13.266;2022-12-18T06:16:23;-5.20;99.90
17687;DHT22;8962;52.538;13.266;2022-12-18T06:18:51;-5.30;99.90
17687;DHT22;8962;52.538;13.266;2022-12-18T06:21:18;-5.20;99.90
17687;DHT22;8962;52.538;13.266;2022-12-18T06:23:45;-5.20;99.90
17687;DHT22;8962;52.538;13.266;2022-12-18T06:26:13;-5.20;99.90
17687;DHT22;8962;52.538;13.266;2022-12-18T06:28:42;-5.20;99.90
17687;DHT22;8962;52.538;13.266;2022-12-18T06:31:10;-5.20;99.90
17687;DHT22;8962;52.538;13.266;2022-12-18T06:33:38;-5.20;99.90
17687;DHT22;8962;52.538;13.266;2022-12-18T06:36:07;-5.20;99.90
17687;DHT22;8962;52.538;13.266;2022-12-18T06:38:37;-5.10;99.90
17687;DHT22;8962;52.538;13.266;2022-12-18T06:41:07;-5.10;99.90
17687;DHT22;8962;52.538;13.266;2022-12-18T06:43:35;-5.10;99.90
17687;DHT22;8962;52.538;13.266;2022-12-18T06:46:05;-5.30;99.90
17687;DHT22;8962;52.538;13.266;2022-12-18T06:48:33;-5.30;99.90
17687;DHT22;8962;52.538;13.266;2022-12-18T06:51:01;-5.20;99.90
17687;DHT22;8962;52.538;13.266;2022-12-18T06:53:30;-5.20;99.90
17687;DHT22;8962;52.538;13.266;2022-12-18T06:56:00;-5.20;99.90
17687;DHT22;8962;52.538;13.266;2022-12-18T06:58:30;-5.30;99.90
17687;DHT22;8962;52.538;13.266;2022-12-18T07:01:00;-5.40;99.90
17687;DHT22;8962;52.538;13.266;2022-12-18T07:03:29;-5.40;99.90
17687;DHT22;8962;52.538;13.266;2022-12-18T07:05:56;-5.40;99.90
17687;DHT22;8962;52.538;13.266;2022-12-18T07:08:23;-5.40;99.90
17687;DHT22;8962;52.538;13.266;2022-12-18T07:10:52;-5.40;99.90
17687;DHT22;8962;52.538;13.266;2022-12-18T07:13:20;-5.40;99.90
17687;DHT22;8962;52.538;13.266;2022-12-18T07:15:47;-5.40;99.90
17687;DHT22;8962;52.538;13.266;2022-12-18T07:18:20;-5.30;99.90
17687;DHT22;8962;52.538;13.266;2022-12-18T07:20:48;-5.30;99.90
17687;DHT22;8962;52.538;13.266;2022-12-18T07:23:17;-5.20;99.90
17687;DHT22;8962;52.538;13.266;2022-12-18T07:25:44;-5.30;99.90
17687;DHT22;8962;52.538;13.266;2022-12-18T07:28:11;-5.30;99.90
17687;DHT22;8962;52.538;13.266;2022-12-18T07:30:43;-5.30;99.90
17687;DHT22;8962;52.538;13.266;2022-12-18T07:33:12;-5.20;99.90
17687;DHT22;8962;52.538;13.266;2022-12-18T07:35:39;-5.20;99.90
17687;DHT22;8962;52.538;13.266;2022-12-18T07:38:07;-5.10;99.90
17687;DHT22;8962;52.538;13.266;2022-12-18T07:40:34;-5.10;99.90
17687;DHT22;8962;52.538;13.266;2022-12-18T07:43:04;-5.00;99.90
17687;DHT22;8962;52.538;13.266;2022-12-18T07:45:39;-4.90;99.90
17687;DHT22;8962;52.538;13.266;2022-12-18T07:48:06;-4.90;99.90
17687;DHT22;8962;52.538;13.266;2022-12-18T07:50:34;-4.90;99.90
17687;DHT22;8962;52.538;13.266;2022-12-18T07:53:03;-4.90;99.90
17687;DHT22;8962;52.538;13.266;2022-12-18T07:55:32;-4.90;99.90
17687;DHT22;8962;52.538;13.266;2022-12-18T07:58:01;-4.80;99.90
17687;DHT22;8962;52.538;13.266;2022-12-18T08:00:29;-4.90;99.90
17687;DHT22;8962;52.538;13.266;2022-12-18T08:02:56;-4.80;99.90
17687;DHT22;8962;52.538;13.266;2022-12-18T08:05:27;-4.80;99.90
17687;DHT22;8962;52.538;13.266;2022-12-18T08:07:55;-4.70;99.90
17687;DHT22;8962;52.538;13.266;2022-12-18T08:10:23;-4.70;99.90
17687;DHT22;8962;52.538;13.266;2022-12-18T08:12:52;-4.70;99.90
17687;DHT22;8962;52.538;13.266;2022-12-18T08:15:19;-4.60;99.90
17687;DHT22;8962;52.538;13.266;2022-12-18T08:17:47;-4.60;99.90
17687;DHT22;8962;52.538;13.266;2022-12-18T08:20:15;-4.60;99.90
17687;DHT22;8962;52.538;13.266;2022-12-18T08:22:44;-4.60;99.90
17687;DHT22;8962;52.538;13.266;2022-12-18T08:25:11;-4.50;99.90
17687;DHT22;8962;52.538;13.266;2022-12-18T08:27:38;-4.50;99.90
17687;DHT22;8962;52.538;13.266;2022-12-18T08:30:10;-4.50;99.90
17687;DHT22;8962;52.538;13.266;2022-12-18T08:32:37;-4.40;99.90
17687;DHT22;8962;52.538;13.266;2022-12-18T08:35:05;-4.50;99.90
17687;DHT22;8962;52.538;13.266;2022-12-18T08:37:34;-4.50;99.90
17687;DHT22;8962;52.538;13.266;2022-12-18T08:40:03;-4.50;99.90
17687;DHT22;8962;52.538;13.266;2022-12-18T08:42:31;-4.50;99.90
17687;DHT22;8962;52.538;13.266;2022-12-18T08:45:17;-4.40;99.90
17687;DHT22;8962;52.538;13.266;2022-12-18T08:47:46;-4.40;99.90
17687;DHT22;8962;52.538;13.266;2022-12-18T08:50:13;-4.20;99.90
17687;DHT22;8962;52.538;13.266;2022-12-18T08:52:42;-4.20;99.90
17687;DHT22;8962;52.538;13.266;2022-12-18T08:55:09;-4.20;99.90
17687;DHT22;8962;52.538;13.266;2022-12-18T08:57:37;-4.30;99.90
17687;DHT22;8962;52.538;13.266;2022-12-18T09:00:06;-4.30;99.90
17687;DHT22;8962;52.538;13.266;2022-12-18T09:02:34;-4.30;99.90
17687;DHT22;8962;52.538;13.266;2022-12-18T09:05:02;-4.30;99.90
17687;DHT22;8962;52.538;13.266;2022-12-18T09:07:32;-4.30;99.90
17687;DHT22;8962;52.538;13.266;2022-12-18T09:10:00;-4.30;99.90
17687;DHT22;8962;52.538;13.266;2022-12-18T09:12:27;-4.40;99.90
17687;DHT22;8962;52.538;13.266;2022-12-18T09:14:54;-4.30;99.90
17687;DHT22;8962;52.538;13.266;2022-12-18T09:17:23;-4.30;99.90
17687;DHT22;8962;52.538;13.266;2022-12-18T09:19:51;-4.20;99.90
17687;DHT22;8962;52.538;13.266;2022-12-18T09:22:18;-4.10;99.90
17687;DHT22;8962;52.538;13.266;2022-12-18T09:24:46;-4.10;99.90
17687;DHT22;8962;52.538;13.266;2022-12-18T09:27:15;-4.00;99.90
17687;DHT22;8962;52.538;13.266;2022-12-18T09:29:43;-3.90;99.90
17687;DHT22;8962;52.538;13.266;2022-12-18T09:32:10;-3.80;99.90
17687;DHT22;8962;52.538;13.266;2022-12-18T09:34:38;-3.70;99.90
17687;DHT22;8962;52.538;13.266;2022-12-18T09:37:07;-3.70;99.90
17687;DHT22;8962;52.538;13.266;2022-12-18T09:39:36;-3.70;99.90
17687;DHT22;8962;52.538;13.266;2022-12-18T09:42:05;-3.90;99.90
17687;DHT22;8962;52.538;13.266;2022-12-18T09:44:37;-3.90;99.90
17687;DHT22;8962;52.538;13.266;2022-12-18T09:47:09;-4.00;99.90
17687;DHT22;8962;52.538;13.266;2022-12-18T09:49:44;-4.00;99.90
17687;DHT22;8962;52.538;13.266;2022-12-18T09:52:21;-4.00;99.90
17687;DHT22;8962;52.538;13.266;2022-12-18T09:54:53;-4.10;99.90
17687;DHT22;8962;52.538;13.266;2022-12-18T09:57:24;-4.00;99.90
17687;DHT22;8962;52.538;13.266;2022-12-18T09:59:55;-4.10;99.90
17687;DHT22;8962;52.538;13.266;2022-12-18T10:02:24;-4.00;99.90
17687;DHT22;8962;52.538;13.266;2022-12-18T10:05:03;-3.80;99.90
17687;DHT22;8962;52.538;13.266;2022-12-18T10:07:42;-3.70;99.90
17687;DHT22;8962;52.538;13.266;2022-12-18T10:10:19;-3.60;99.90
17687;DHT22;8962;52.538;13.266;2022-12-18T10:12:57;-3.50;99.90
17687;DHT22;8962;52.538;13.266;2022-12-18T10:15:31;-3.50;99.90
17687;DHT22;8962;52.538;13.266;2022-12-18T10:18:06;-3.40;99.90
17687;DHT22;8962;52.538;13.266;2022-12-18T10:20:44;-3.40;99.90
17687;DHT22;8962;52.538;13.266;2022-12-18T10:23:19;-3.40;99.90
17687;DHT22;8962;52.538;13.266;2022-12-18T10:25:53;-3.50;99.90
17687;DHT22;8962;52.538;13.266;2022-12-18T10:28:23;-3.50;99.90
17687;DHT22;8962;52.538;13.266;2022-12-18T10:30:51;-3.60;99.90
17687;DHT22;8962;52.538;13.266;2022-12-18T10:33:20;-3.60;99.90
17687;DHT22;8962;52.538;13.266;2022-12-18T10:35:49;-3.70;99.90
17687;DHT22;8962;52.538;13.266;2022-12-18T10:38:24;-3.70;99.90
17687;DHT22;8962;52.538;13.266;2022-12-18T10:40:53;-3.60;99.90
17687;DHT22;8962;52.538;13.266;2022-12-18T10:43:24;-3.50;99.90
17687;DHT22;8962;52.538;13.266;2022-12-18T10:46:02;-3.50;99.90
17687;DHT22;8962;52.538;13.266;2022-12-18T10:48:30;-3.40;99.90
17687;DHT22;8962;52.538;13.266;2022-12-18T10:50:58;-3.40;99.90
17687;DHT22;8962;52.538;13.266;2022-12-18T10:53:29;-3.40;99.90
17687;DHT22;8962;52.538;13.266;2022-12-18T10:56:00;-3.40;99.90
17687;DHT22;8962;52.538;13.266;2022-12-18T10:58:33;-3.30;99.90
17687;DHT22;8962;52.538;13.266;2022-12-18T11:01:05;-3.30;99.90
17687;DHT22;8962;52.538;13.266;2022-12-18T11:03:35;-3.20;99.90
17687;DHT22;8962;52.538;13.266;2022-12-18T11:06:06;-3.20;99.90
17687;DHT22;8962;52.538;13.266;2022-12-18T11:08:40;-3.00;99.90
17687;DHT22;8962;52.538;13.266;2022-12-18T11:11:16;-3.00;99.90
17687;DHT22;8962;52.538;13.266;2022-12-18T11:13:58;-3.00;99.90
17687;DHT22;8962;52.538;13.266;2022-12-18T11:16:26;-2.90;99.90
17687;DHT22;8962;52.538;13.266;2022-12-18T11:19:13;-2.80;99.90
17687;DHT22;8962;52.538;13.266;2022-12-18T11:21:41;-2.80;99.90
17687;DHT22;8962;52.538;13.266;2022-12-18T11:24:20;-2.70;99.90
17687;DHT22;8962;52.538;13.266;2022-12-18T11:26:48;-2.70;99.90
17687;DHT22;8962;52.538;13.266;2022-12-18T11:29:18;-2.70;99.90
17687;DHT22;8962;52.538;13.266;2022-12-18T11:31:45;-2.80;99.90
17687;DHT22;8962;52.538;13.266;2022-12-18T11:34:23;-2.80;99.90
17687;DHT22;8962;52.538;13.266;2022-12-18T11:36:54;-2.80;99.90
17687;DHT22;8962;52.538;13.266;2022-12-18T11:39:31;-2.80;99.90
17687;DHT22;8962;52.538;13.266;2022-12-18T11:42:01;-2.80;99.90
17687;DHT22;8962;52.538;13.266;2022-12-18T11:44:45;-2.80;99.90
17687;DHT22;8962;52.538;13.266;2022-12-18T11:47:25;-2.80;99.90
17687;DHT22;8962;52.538;13.266;2022-12-18T11:49:56;-2.70;99.90
17687;DHT22;8962;52.538;13.266;2022-12-18T11:52:33;-2.60;99.90
17687;DHT22;8962;52.538;13.266;2022-12-18T11:55:11;-2.50;99.90
17687;DHT22;8962;52.538;13.266;2022-12-18T11:57:47;-2.40;99.90
17687;DHT22;8962;52.538;13.266;2022-12-18T12:00:19;-2.40;99.90
17687;DHT22;8962;52.538;13.266;2022-12-18T12:03:21;-2.40;99.90
17687;DHT22;8962;52.538;13.266;2022-12-18T12:05:59;-2.40;99.90
17687;DHT22;8962;52.538;13.266;2022-12-18T12:08:36;-2.40;99.90
17687;DHT22;8962;52.538;13.266;2022-12-18T12:11:12;-2.40;99.90
17687;DHT22;8962;52.538;13.266;2022-12-18T12:14:01;-2.40;99.90
17687;DHT22;8962;52.538;13.266;2022-12-18T12:16:37;-2.50;99.90
17687;DHT22;8962;52.538;13.266;2022-12-18T12:19:23;-2.50;99.90
17687;DHT22;8962;52.538;13.266;2022-12-18T12:22:00;-2.50;99.90
17687;DHT22;8962;52.538;13.266;2022-12-18T12:24:39;-2.40;99.90
17687;DHT22;8962;52.538;13.266;2022-12-18T12:27:19;-2.40;99.90
17687;DHT22;8962;52.538;13.266;2022-12-18T12:29:58;-2.50;99.90
17687;DHT22;8962;52.538;13.266;2022-12-18T12:32:42;-2.40;99.90
17687;DHT22;8962;52.538;13.266;2022-12-18T12:35:22;-2.30;99.90
17687;DHT22;8962;52.538;13.266;2022-12-18T12:38:00;-2.20;99.90
17687;DHT22;8962;52.538;13.266;2022-12-18T12:40:34;-2.30;99.90
17687;DHT22;8962;52.538;13.266;2022-12-18T12:43:17;-2.30;99.90
17687;DHT22;8962;52.538;13.266;2022-12-18T12:45:49;-2.40;99.90
17687;DHT22;8962;52.538;13.266;2022-12-18T12:48:33;-2.40;99.90
17687;DHT22;8962;52.538;13.266;2022-12-18T12:51:04;-2.40;99.90
17687;DHT22;8962;52.538;13.266;2022-12-18T12:53:37;-2.40;99.90
17687;DHT22;8962;52.538;13.266;2022-12-18T12:56:05;-2.40;99.90
17687;DHT22;8962;52.538;13.266;2022-12-18T12:58:41;-2.40;99.90
17687;DHT22;8962;52.538;13.266;2022-12-18T13:01:18;-2.50;99.90
17687;DHT22;8962;52.538;13.266;2022-12-18T13:03:57;-2.50;99.90
17687;DHT22;8962;52.538;13.266;2022-12-18T13:06:37;-2.50;99.90
17687;DHT22;8962;52.538;13.266;2022-12-18T13:09:05;-2.40;99.90
17687;DHT22;8962;52.538;13.266;2022-12-18T13:11:36;-2.50;99.90
17687;DHT22;8962;52.538;13.266;2022-12-18T13:14:29;-2.50;99.90
17687;DHT22;8962;52.538;13.266;2022-12-18T13:17:29;-2.40;99.90
17687;DHT22;8962;52.538;13.266;2022-12-18T13:20:05;-2.50;99.90
17687;DHT22;8962;52.538;13.266;2022-12-18T13:22:37;-2.60;99.90
17687;DHT22;8962;52.538;13.266;2022-12-18T13:25:35;-2.60;99.90
17687;DHT22;8962;52.538;13.266;2022-12-18T13:28:08;-2.50;99.90
17687;DHT22;8962;52.538;13.266;2022-12-18T13:31:02;-2.50;99.90
17687;DHT22;8962;52.538;13.266;2022-12-18T13:33:45;-2.50;99.90
17687;DHT22;8962;52.538;13.266;2022-12-18T13:36:26;-2.40;99.90
17687;DHT22;8962;52.538;13.266;2022-12-18T13:45:40;-2.50;99.90
17687;DHT22;8962;52.538;13.266;2022-12-18T13:48:22;-2.60;99.90
17687;DHT22;8962;52.538;13.266;2022-12-18T13:50:55;-2.60;99.90
17687;DHT22;8962;52.538;13.266;2022-12-18T13:53:27;-2.50;99.90
17687;DHT22;8962;52.538;13.266;2022-12-18T13:55:55;-2.60;99.90
17687;DHT22;8962;52.538;13.266;2022-12-18T13:58:22;-2.60;99.90
17687;DHT22;8962;52.538;13.266;2022-12-18T14:01:40;-2.70;99.90
17687;DHT22;8962;52.538;13.266;2022-12-18T14:04:11;-2.70;99.90
17687;DHT22;8962;52.538;13.266;2022-12-18T14:06:38;-2.70;99.90
17687;DHT22;8962;52.538;13.266;2022-12-18T14:09:08;-2.60;99.90
17687;DHT22;8962;52.538;13.266;2022-12-18T14:11:37;-2.70;99.90
17687;DHT22;8962;52.538;13.266;2022-12-18T14:14:05;-2.60;99.90
17687;DHT22;8962;52.538;13.266;2022-12-18T14:16:34;-2.70;99.90
17687;DHT22;8962;52.538;13.266;2022-12-18T14:19:01;-2.70;99.90
17687;DHT22;8962;52.538;13.266;2022-12-18T14:21:32;-2.70;99.90
17687;DHT22;8962;52.538;13.266;2022-12-18T14:24:11;-2.70;99.90
17687;DHT22;8962;52.538;13.266;2022-12-18T14:26:40;-2.70;99.90
17687;DHT22;8962;52.538;13.266;2022-12-18T14:29:21;-2.80;99.90
17687;DHT22;8962;52.538;13.266;2022-12-18T14:32:07;-2.90;99.90
17687;DHT22;8962;52.538;13.266;2022-12-18T14:34:34;-2.90;99.90
17687;DHT22;8962;52.538;13.266;2022-12-18T14:37:08;-2.90;99.90
17687;DHT22;8962;52.538;13.266;2022-12-18T14:39:36;-2.80;99.90
17687;DHT22;8962;52.538;13.266;2022-12-18T14:42:03;-2.80;99.90
17687;DHT22;8962;52.538;13.266;2022-12-18T14:44:30;-2.90;99.90
17687;DHT22;8962;52.538;13.266;2022-12-18T14:46:57;-2.90;99.90
17687;DHT22;8962;52.538;13.266;2022-12-18T14:49:30;-2.90;99.90
17687;DHT22;8962;52.538;13.266;2022-12-18T14:52:03;-2.90;99.90
17687;DHT22;8962;52.538;13.266;2022-12-18T14:54:35;-2.90;99.90
17687;DHT22;8962;52.538;13.266;2022-12-18T14:57:06;-3.00;99.90
17687;DHT22;8962;52.538;13.266;2022-12-18T14:59:44;-3.00;99.90
17687;DHT22;8962;52.538;13.266;2022-12-18T15:02:18;-3.00;99.90
17687;DHT22;8962;52.538;13.266;2022-12-18T15:04:46;-3.10;99.90
17687;DHT22;8962;52.538;13.266;2022-12-18T15:07:16;-3.00;99.90
17687;DHT22;8962;52.538;13.266;2022-12-18T15:10:07;-3.00;99.90
17687;DHT22;8962;52.538;13.266;2022-12-18T15:12:39;-3.00;99.90
17687;DHT22;8962;52.538;13.266;2022-12-18T15:18:13;-2.90;99.90
17687;DHT22;8962;52.538;13.266;2022-12-18T15:20:44;-2.90;99.90
17687;DHT22;8962;52.538;13.266;2022-12-18T15:23:16;-2.90;99.90
17687;DHT22;8962;52.538;13.266;2022-12-18T15:25:46;-3.00;99.90
17687;DHT22;8962;52.538;13.266;2022-12-18T15:28:19;-3.00;99.90
17687;DHT22;8962;52.538;13.266;2022-12-18T15:31:06;-3.00;99.90
17687;DHT22;8962;52.538;13.266;2022-12-18T15:33:35;-3.00;99.90
17687;DHT22;8962;52.538;13.266;2022-12-18T15:36:05;-3.00;99.90
17687;DHT22;8962;52.538;13.266;2022-12-18T15:38:35;-3.00;99.90
17687;DHT22;8962;52.538;13.266;2022-12-18T15:41:11;-3.00;99.90
17687;DHT22;8962;52.538;13.266;2022-12-18T15:43:39;-3.10;99.90
17687;DHT22;8962;52.538;13.266;2022-12-18T15:46:08;-3.20;99.90
17687;DHT22;8962;52.538;13.266;2022-12-18T15:48:40;-3.20;99.90
17687;DHT22;8962;52.538;13.266;2022-12-18T15:51:13;-3.30;99.90
17687;DHT22;8962;52.538;13.266;2022-12-18T15:53:41;-3.30;99.90
17687;DHT22;8962;52.538;13.266;2022-12-18T15:56:11;-3.20;99.90
17687;DHT22;8962;52.538;13.266;2022-12-18T15:58:56;-3.20;99.90
17687;DHT22;8962;52.538;13.266;2022-12-18T16:01:26;-3.20;99.90
17687;DHT22;8962;52.538;13.266;2022-12-18T16:03:55;-3.20;99.90
17687;DHT22;8962;52.538;13.266;2022-12-18T16:06:23;-3.30;99.90
17687;DHT22;8962;52.538;13.266;2022-12-18T16:08:52;-3.30;99.90